createdAt,value
2022-12-15T00:02:23.087Z,91.30
2022-12-15T00:05:08.353Z,91.20
2022-12-15T00:07:53.713Z,90.90
2022-12-15T00:10:39.319Z,90.70
2022-12-15T00:13:32.065Z,90.70
2022-12-15T00:16:18.310Z,90.80
2022-12-15T00:19:04.140Z,90.70
2022-12-15T00:21:49.914Z,90.40
2022-12-15T00:24:35.598Z,89.90
2022-12-15T00:27:20.925Z,90.00
2022-12-15T00:30:06.370Z,90.10
2022-12-15T00:32:52.239Z,90.00
2022-12-15T00:35:37.636Z,89.70
2022-12-15T00:38:32.263Z,90.10
2022-12-15T00:41:00.023Z,89.70
2022-12-15T00:43:35.352Z,89.70
2022-12-15T00:46:22.644Z,89.30
2022-12-15T00:48:49.866Z,89.30
2022-12-15T00:51:17.933Z,89.40
2022-12-15T00:54:03.858Z,89.40
2022-12-15T00:56:49.475Z,89.60
2022-12-15T00:59:35.876Z,89.70
2022-12-15T01:02:22.404Z,89.90
2022-12-15T01:05:08.206Z,89.90
2022-12-15T01:07:53.652Z,89.90
2022-12-15T01:10:39.171Z,90.10
2022-12-15T01:13:24.564Z,90.30
2022-12-15T01:16:09.836Z,90.30
2022-12-15T01:18:55.523Z,90.30
2022-12-15T01:21:25.065Z,90.30
2022-12-15T01:23:52.534Z,90.40
2022-12-15T01:26:19.636Z,90.30
2022-12-15T01:28:46.433Z,90.30
2022-12-15T01:31:13.480Z,90.30
2022-12-15T01:33:42.503Z,90.30
2022-12-15T01:36:10.472Z,90.40
2022-12-15T01:38:37.366Z,90.40
2022-12-15T01:41:16.399Z,90.20
2022-12-15T01:43:43.117Z,90.10
2022-12-15T01:46:19.177Z,90.20
2022-12-15T01:49:11.510Z,90.30
2022-12-15T01:51:42.745Z,90.40
2022-12-15T01:54:29.047Z,90.50
2022-12-15T01:57:08.892Z,90.50
2022-12-15T01:59:39.713Z,90.40
2022-12-15T02:02:07.362Z,90.40
2022-12-15T02:04:34.440Z,90.50
2022-12-15T02:07:01.202Z,90.60
2022-12-15T02:09:28.487Z,90.40
2022-12-15T02:12:07.092Z,90.60
2022-12-15T02:14:52.251Z,90.60
2022-12-15T02:17:44.949Z,90.40
2022-12-15T02:20:14.600Z,90.60
2022-12-15T02:22:50.195Z,90.80
2022-12-15T02:25:16.883Z,90.90
2022-12-15T02:27:48.379Z,90.90
2022-12-15T02:30:20.222Z,91.00
2022-12-15T02:32:58.345Z,91.00
2022-12-15T02:35:31.567Z,90.90
2022-12-15T02:37:58.286Z,91.00
2022-12-15T02:40:25.303Z,91.00
2022-12-15T02:42:55.827Z,91.00
2022-12-15T02:45:34.747Z,91.20
2022-12-15T02:48:20.492Z,90.90
2022-12-15T02:51:05.805Z,91.00
2022-12-15T02:53:42.280Z,90.90
2022-12-15T02:56:34.845Z,91.10
2022-12-15T02:59:11.018Z,91.20
2022-12-15T03:01:49.968Z,91.20
2022-12-15T03:04:17.966Z,91.10
2022-12-15T03:06:44.900Z,91.10
2022-12-15T03:09:12.457Z,91.00
2022-12-15T03:11:39.214Z,91.00
2022-12-15T03:14:06.265Z,91.00
2022-12-15T03:16:33.091Z,91.20
2022-12-15T03:18:59.898Z,91.20
2022-12-15T03:21:27.570Z,91.20
2022-12-15T03:23:54.374Z,91.30
2022-12-15T03:26:21.634Z,91.30
2022-12-15T03:28:48.355Z,91.20
2022-12-15T03:31:15.179Z,91.30
2022-12-15T03:33:41.934Z,91.30
2022-12-15T03:36:09.065Z,91.40
2022-12-15T03:38:35.798Z,91.30
2022-12-15T03:41:02.531Z,91.40
2022-12-15T03:43:29.716Z,91.40
2022-12-15T03:45:56.739Z,91.80
2022-12-15T03:48:23.495Z,91.90
2022-12-15T03:50:50.325Z,91.90
2022-12-15T03:53:17.137Z,91.60
2022-12-15T03:55:43.904Z,91.20
2022-12-15T03:58:10.605Z,91.40
2022-12-15T04:00:37.924Z,91.40
2022-12-15T04:03:05.140Z,91.50
2022-12-15T04:05:34.726Z,91.50
2022-12-15T04:08:01.960Z,91.50
2022-12-15T04:10:34.464Z,91.60
2022-12-15T04:13:06.626Z,91.60
2022-12-15T04:15:35.372Z,91.70
2022-12-15T04:18:04.321Z,91.90
2022-12-15T04:20:31.413Z,91.80
2022-12-15T04:22:58.809Z,91.70
2022-12-15T04:25:45.386Z,92.00
2022-12-15T04:28:31.843Z,91.90
2022-12-15T04:31:33.530Z,92.00
2022-12-15T04:34:22.921Z,92.10
2022-12-15T04:37:11.148Z,92.00
2022-12-15T04:39:59.670Z,92.10
2022-12-15T04:42:46.203Z,92.10
2022-12-15T04:45:33.730Z,92.30
2022-12-15T04:48:19.147Z,92.10
2022-12-15T04:51:04.484Z,92.10
2022-12-15T04:53:49.924Z,92.20
2022-12-15T04:56:35.517Z,92.30
2022-12-15T04:59:20.985Z,92.20
2022-12-15T05:02:06.742Z,92.40
2022-12-15T05:04:52.428Z,92.30
2022-12-15T05:07:37.904Z,92.30
2022-12-15T05:10:24.866Z,92.10
2022-12-15T05:13:10.254Z,92.10
2022-12-15T05:15:55.745Z,92.00
2022-12-15T05:18:41.516Z,92.30
2022-12-15T05:21:27.074Z,92.10
2022-12-15T05:24:12.265Z,92.00
2022-12-15T05:26:57.918Z,92.20
2022-12-15T05:29:43.894Z,92.10
2022-12-15T05:32:11.695Z,92.20
2022-12-15T05:34:38.438Z,92.20
2022-12-15T05:37:07.234Z,92.00
2022-12-15T05:39:34.356Z,92.10
2022-12-15T05:42:01.288Z,92.00
2022-12-15T05:44:28.479Z,91.70
2022-12-15T05:46:55.327Z,91.60
2022-12-15T05:49:23.227Z,91.60
2022-12-15T05:51:50.337Z,91.50
2022-12-15T05:54:19.336Z,91.60
2022-12-15T05:56:47.170Z,91.80
2022-12-15T05:59:17.672Z,91.80
2022-12-15T06:01:44.863Z,91.70
2022-12-15T06:04:12.757Z,91.60
2022-12-15T06:06:40.394Z,92.10
2022-12-15T06:09:07.355Z,92.20
2022-12-15T06:11:34.201Z,92.30
2022-12-15T06:14:00.950Z,92.10
2022-12-15T06:16:28.115Z,92.10
2022-12-15T06:18:57.632Z,92.20
2022-12-15T06:21:35.213Z,92.00
2022-12-15T06:24:03.953Z,92.00
2022-12-15T06:26:35.827Z,92.20
2022-12-15T06:29:05.367Z,92.10
2022-12-15T06:31:34.008Z,91.80
2022-12-15T06:34:04.649Z,91.60
2022-12-15T06:36:31.373Z,91.80
2022-12-15T06:39:04.206Z,91.90
2022-12-15T06:41:32.168Z,92.00
2022-12-15T06:44:00.088Z,92.10
2022-12-15T06:46:28.774Z,92.10
2022-12-15T06:48:56.229Z,92.20
2022-12-15T06:51:23.089Z,92.10
2022-12-15T06:53:52.481Z,92.20
2022-12-15T06:56:28.872Z,92.20
2022-12-15T06:58:59.523Z,92.00
2022-12-15T07:01:27.322Z,92.30
2022-12-15T07:03:55.349Z,92.10
2022-12-15T07:06:22.497Z,91.90
2022-12-15T07:08:56.401Z,92.00
2022-12-15T07:11:23.489Z,92.00
2022-12-15T07:13:54.720Z,92.20
2022-12-15T07:16:23.425Z,92.20
2022-12-15T07:18:50.597Z,92.30
2022-12-15T07:21:17.598Z,92.10
2022-12-15T07:24:01.174Z,92.10
2022-12-15T07:26:28.756Z,92.20
2022-12-15T07:28:55.972Z,92.20
2022-12-15T07:31:22.986Z,92.00
2022-12-15T07:33:51.990Z,92.00
2022-12-15T07:36:18.897Z,91.90
2022-12-15T07:38:50.001Z,91.90
2022-12-15T07:41:19.033Z,92.00
2022-12-15T07:43:47.006Z,91.80
2022-12-15T07:46:14.008Z,91.80
2022-12-15T07:48:40.845Z,91.50
2022-12-15T07:51:15.249Z,91.20
2022-12-15T07:53:42.395Z,91.30
2022-12-15T07:56:10.420Z,91.50
2022-12-15T07:58:38.633Z,91.60
2022-12-15T08:01:07.247Z,91.50
2022-12-15T08:03:35.545Z,91.60
2022-12-15T08:06:10.187Z,91.40
2022-12-15T08:08:37.340Z,91.10
2022-12-15T08:11:05.565Z,91.20
2022-12-15T08:16:21.208Z,91.00
2022-12-15T08:18:48.759Z,91.00
2022-12-15T08:21:15.612Z,91.10
2022-12-15T08:23:42.354Z,90.90
2022-12-15T08:26:15.094Z,90.60
2022-12-15T08:28:42.879Z,90.20
2022-12-15T08:31:16.715Z,89.80
2022-12-15T08:33:44.708Z,89.90
2022-12-15T08:36:13.593Z,90.00
2022-12-15T08:38:41.379Z,89.70
2022-12-15T08:41:13.092Z,89.50
2022-12-15T08:43:47.687Z,88.80
2022-12-15T08:46:20.972Z,88.50
2022-12-15T08:48:48.250Z,88.60
2022-12-15T08:51:15.436Z,88.80
2022-12-15T08:53:42.603Z,88.20
2022-12-15T08:56:12.321Z,88.30
2022-12-15T08:58:39.980Z,88.50
2022-12-15T09:01:13.830Z,88.20
2022-12-15T09:03:44.545Z,88.10
2022-12-15T09:06:20.483Z,87.50
2022-12-15T09:08:50.449Z,87.90
2022-12-15T09:11:18.009Z,87.50
2022-12-15T09:13:44.811Z,87.50
2022-12-15T09:16:14.829Z,87.30
2022-12-15T09:18:43.628Z,86.70
2022-12-15T09:21:11.723Z,86.50
2022-12-15T09:23:39.599Z,85.90
2022-12-15T09:26:12.778Z,85.00
2022-12-15T09:28:39.887Z,84.70
2022-12-15T09:31:31.073Z,84.60
2022-12-15T09:33:59.281Z,84.20
2022-12-15T09:36:27.381Z,83.50
2022-12-15T09:38:54.588Z,83.60
2022-12-15T09:41:33.378Z,83.90
2022-12-15T09:44:15.706Z,84.20
2022-12-15T09:47:11.985Z,83.60
2022-12-15T09:49:54.606Z,84.00
2022-12-15T09:52:29.052Z,83.10
2022-12-15T09:54:57.755Z,83.40
2022-12-15T09:57:51.334Z,82.70
2022-12-15T10:00:25.622Z,82.60
2022-12-15T10:03:04.832Z,81.90
2022-12-15T10:06:06.899Z,82.40
2022-12-15T10:08:33.876Z,82.30
2022-12-15T10:11:05.037Z,81.50
2022-12-15T10:13:52.185Z,80.90
2022-12-15T10:16:28.877Z,81.70
2022-12-15T10:19:05.871Z,81.20
2022-12-15T10:21:32.867Z,80.60
2022-12-15T10:24:17.630Z,78.20
2022-12-15T10:27:07.629Z,78.50
2022-12-15T10:30:04.276Z,77.70
2022-12-15T10:32:51.651Z,77.50
2022-12-15T10:35:23.356Z,78.40
2022-12-15T10:37:50.347Z,78.10
2022-12-15T10:40:50.415Z,78.00
2022-12-15T10:43:25.794Z,77.70
2022-12-15T10:46:18.940Z,77.10
2022-12-15T10:48:57.680Z,78.10
2022-12-15T10:51:31.668Z,77.70
2022-12-15T10:54:14.446Z,78.40
2022-12-15T10:56:58.993Z,78.30
2022-12-15T10:59:31.809Z,78.60
2022-12-15T11:02:23.501Z,79.20
2022-12-15T11:05:03.918Z,78.90
2022-12-15T11:07:45.575Z,79.40
2022-12-15T11:10:26.271Z,80.30
2022-12-15T11:13:16.289Z,79.40
2022-12-15T11:15:55.093Z,80.10
2022-12-15T11:18:48.848Z,79.90
2022-12-15T11:21:30.303Z,79.40
2022-12-15T11:24:13.164Z,80.30
2022-12-15T11:26:46.814Z,80.00
2022-12-15T11:29:34.435Z,79.60
2022-12-15T11:32:06.683Z,80.10
2022-12-15T11:34:37.644Z,80.30
2022-12-15T11:40:40.602Z,81.40
2022-12-15T11:43:28.644Z,82.10
2022-12-15T11:46:05.880Z,83.10
2022-12-15T11:48:42.454Z,82.80
2022-12-15T11:51:09.330Z,83.50
2022-12-15T11:53:56.040Z,82.50
2022-12-15T11:56:29.022Z,82.80
2022-12-15T11:59:04.720Z,82.50
2022-12-15T12:01:34.346Z,83.10
2022-12-15T12:04:23.300Z,82.10
2022-12-15T12:07:07.865Z,82.30
2022-12-15T12:10:05.336Z,82.50
2022-12-15T12:12:46.498Z,82.60
2022-12-15T12:15:32.902Z,82.90
2022-12-15T12:18:17.799Z,83.30
2022-12-15T12:20:52.139Z,82.80
2022-12-15T12:23:29.106Z,82.00
2022-12-15T12:26:05.226Z,82.10
2022-12-15T12:28:48.809Z,81.70
2022-12-15T12:31:41.380Z,81.90
2022-12-15T12:34:37.980Z,82.10
2022-12-15T12:37:20.478Z,82.30
2022-12-15T12:39:50.172Z,81.50
2022-12-15T12:42:37.569Z,81.10
2022-12-15T12:45:04.917Z,82.30
2022-12-15T12:47:37.070Z,83.20
2022-12-15T12:50:21.048Z,83.60
2022-12-15T12:53:05.625Z,83.00
2022-12-15T12:55:40.302Z,83.00
2022-12-15T12:58:39.200Z,82.90
2022-12-15T13:01:20.014Z,82.50
2022-12-15T13:04:12.126Z,81.90
2022-12-15T13:06:44.139Z,81.70
2022-12-15T13:09:16.697Z,81.50
2022-12-15T13:11:49.430Z,81.00
2022-12-15T13:17:27.024Z,80.90
2022-12-15T13:19:57.188Z,82.30
2022-12-15T13:22:40.128Z,82.70
2022-12-15T13:25:48.573Z,82.50
2022-12-15T13:28:45.550Z,82.20
2022-12-15T13:31:13.225Z,82.40
2022-12-15T13:33:48.951Z,82.70
2022-12-15T13:36:37.776Z,82.90
2022-12-15T13:39:24.634Z,83.40
2022-12-15T13:45:03.736Z,83.20
2022-12-15T13:47:32.452Z,83.00
2022-12-15T13:50:02.811Z,83.50
2022-12-15T13:53:08.459Z,83.10
2022-12-15T13:55:34.858Z,83.90
2022-12-15T13:58:16.272Z,83.80
2022-12-15T14:00:59.044Z,84.40
2022-12-15T14:03:26.195Z,84.60
2022-12-15T14:05:59.099Z,84.20
2022-12-15T14:08:29.595Z,83.90
2022-12-15T14:11:16.625Z,83.80
2022-12-15T14:13:54.113Z,84.20
2022-12-15T14:16:22.882Z,84.20
2022-12-15T14:19:15.322Z,84.40
2022-12-15T14:21:56.858Z,84.60
2022-12-15T14:24:40.477Z,84.60
2022-12-15T14:27:07.617Z,85.50
2022-12-15T14:29:34.663Z,85.80
2022-12-15T14:32:01.971Z,86.80
2022-12-15T14:34:38.772Z,87.40
2022-12-15T14:37:11.472Z,87.40
2022-12-15T14:39:50.323Z,87.80
2022-12-15T14:42:24.536Z,87.50
2022-12-15T14:44:56.348Z,87.10
2022-12-15T14:47:29.370Z,87.10
2022-12-15T14:49:58.644Z,87.20
2022-12-15T14:52:30.697Z,87.10
2022-12-15T14:54:59.923Z,87.50
2022-12-15T14:57:40.929Z,88.10
2022-12-15T15:00:49.717Z,87.80
2022-12-15T15:03:04.785Z,80.60
2022-12-15T15:03:10.678Z,81.00
2022-12-15T15:06:03.378Z,88.50
2022-12-15T15:08:36.839Z,88.70
2022-12-15T15:11:26.893Z,88.80
2022-12-15T15:14:18.315Z,89.00
2022-12-15T15:16:45.855Z,89.80
2022-12-15T15:19:20.927Z,89.80
2022-12-15T15:21:47.908Z,90.00
2022-12-15T15:24:15.277Z,89.60
2022-12-15T15:26:43.045Z,89.60
2022-12-15T15:29:39.189Z,89.70
2022-12-15T15:32:21.243Z,89.90
2022-12-15T15:34:49.473Z,89.70
2022-12-15T15:37:24.578Z,89.70
2022-12-15T15:39:55.370Z,90.00
2022-12-15T15:42:25.425Z,90.10
2022-12-15T15:44:57.148Z,89.90
2022-12-15T15:47:25.222Z,89.90
2022-12-15T15:49:58.281Z,89.80
2022-12-15T15:52:25.662Z,89.90
2022-12-15T15:54:53.300Z,90.00
2022-12-15T15:57:21.596Z,90.50
2022-12-15T15:59:48.617Z,91.10
2022-12-15T16:02:15.916Z,91.50
2022-12-15T16:04:44.101Z,91.60
2022-12-15T16:07:22.588Z,91.80
2022-12-15T16:09:49.675Z,91.50
2022-12-15T16:12:27.377Z,91.60
2022-12-15T16:14:55.620Z,92.20
2022-12-15T16:17:24.099Z,92.10
2022-12-15T16:19:50.915Z,91.30
2022-12-15T16:22:20.493Z,91.70
2022-12-15T16:24:47.886Z,92.10
2022-12-15T16:27:15.585Z,92.20
2022-12-15T16:29:42.407Z,92.70
2022-12-15T16:32:11.188Z,92.60
2022-12-15T16:34:37.982Z,92.30
2022-12-15T16:37:05.222Z,92.40
2022-12-15T16:39:34.489Z,92.80
2022-12-15T16:42:02.268Z,93.00
2022-12-15T16:44:30.045Z,92.90
2022-12-15T16:46:58.734Z,92.60
2022-12-15T16:49:26.593Z,92.20
2022-12-15T16:51:54.172Z,91.90
2022-12-15T16:54:25.088Z,92.00
2022-12-15T16:56:56.882Z,91.90
2022-12-15T16:59:34.968Z,92.00
2022-12-15T17:02:19.747Z,92.20
2022-12-15T17:04:46.628Z,92.30
2022-12-15T17:07:19.775Z,92.50
2022-12-15T17:09:50.630Z,92.60
2022-12-15T17:12:18.654Z,92.40
2022-12-15T17:14:45.536Z,92.20
2022-12-15T17:17:15.109Z,91.90
2022-12-15T17:19:57.954Z,91.50
2022-12-15T17:22:29.810Z,91.40
2022-12-15T17:24:56.629Z,92.00
2022-12-15T17:27:28.847Z,92.10
2022-12-15T17:29:58.079Z,92.00
2022-12-15T17:32:24.772Z,92.00
2022-12-15T17:34:51.951Z,92.50
2022-12-15T17:37:18.816Z,92.10
2022-12-15T17:39:50.734Z,92.00
2022-12-15T17:42:19.918Z,92.90
2022-12-15T17:44:48.053Z,92.60
2022-12-15T17:47:16.461Z,92.70
2022-12-15T17:49:43.682Z,92.40
2022-12-15T17:52:28.836Z,92.30
2022-12-15T17:54:56.242Z,92.30
2022-12-15T17:57:23.130Z,92.10
2022-12-15T17:59:49.921Z,92.50
2022-12-15T18:02:16.895Z,92.50
2022-12-15T18:04:44.249Z,92.40
2022-12-15T18:07:21.549Z,92.40
2022-12-15T18:09:50.094Z,92.40
2022-12-15T18:12:26.001Z,92.40
2022-12-15T18:14:53.800Z,92.50
2022-12-15T18:17:21.143Z,92.50
2022-12-15T18:19:48.063Z,92.50
2022-12-15T18:22:22.182Z,92.60
2022-12-15T18:24:50.942Z,92.60
2022-12-15T18:27:28.156Z,92.60
2022-12-15T18:29:56.443Z,92.40
2022-12-15T18:32:25.842Z,92.50
2022-12-15T18:34:53.769Z,92.40
2022-12-15T18:37:23.067Z,92.40
2022-12-15T18:39:50.578Z,92.40
2022-12-15T18:42:19.913Z,92.40
2022-12-15T18:44:50.182Z,92.50
2022-12-15T18:47:19.309Z,92.50
2022-12-15T18:49:46.353Z,92.30
2022-12-15T18:52:18.514Z,92.40
2022-12-15T18:54:46.902Z,92.30
2022-12-15T18:57:35.763Z,92.30
2022-12-15T19:00:11.295Z,92.20
2022-12-15T19:02:38.083Z,92.10
2022-12-15T19:05:06.166Z,92.10
2022-12-15T19:07:35.306Z,92.20
2022-12-15T19:10:02.094Z,92.00
2022-12-15T19:12:29.292Z,92.10
2022-12-15T19:14:56.510Z,92.10
2022-12-15T19:17:42.472Z,92.20
2022-12-15T19:20:37.270Z,92.20
2022-12-15T19:23:05.164Z,92.20
2022-12-15T19:25:32.879Z,92.30
2022-12-15T19:28:00.336Z,92.30
2022-12-15T19:30:30.386Z,92.30
2022-12-15T19:32:57.643Z,92.40
2022-12-15T19:35:25.367Z,92.30
2022-12-15T19:37:55.050Z,92.20
2022-12-15T19:40:28.201Z,92.40
2022-12-15T19:42:55.545Z,92.30
2022-12-15T19:45:29.828Z,92.20
2022-12-15T19:47:57.363Z,92.40
2022-12-15T19:50:25.433Z,92.50
2022-12-15T19:52:56.801Z,92.40
2022-12-15T19:55:28.044Z,92.40
2022-12-15T19:57:54.995Z,92.40
2022-12-15T20:00:22.795Z,92.20
2022-12-15T20:02:51.606Z,92.20
2022-12-15T20:05:19.535Z,92.10
2022-12-15T20:07:47.376Z,92.10
2022-12-15T20:10:24.619Z,92.00
2022-12-15T20:12:54.699Z,92.00
2022-12-15T20:15:26.104Z,92.10
2022-12-15T20:17:56.484Z,92.10
2022-12-15T20:20:25.057Z,92.10
2022-12-15T20:22:55.378Z,92.00
2022-12-15T20:25:32.475Z,91.90
2022-12-15T20:28:00.566Z,91.90
2022-12-15T20:30:35.385Z,91.60
2022-12-15T20:33:04.075Z,91.70
2022-12-15T20:35:33.216Z,91.70
2022-12-15T20:38:02.254Z,91.60
2022-12-15T20:40:30.421Z,91.50
2022-12-15T20:42:57.502Z,91.60
2022-12-15T20:45:26.543Z,91.60
2022-12-15T20:47:55.229Z,91.40
2022-12-15T20:50:44.385Z,91.10
2022-12-15T20:53:22.677Z,91.00
2022-12-15T20:55:51.315Z,90.80
2022-12-15T20:58:19.391Z,90.60
2022-12-15T21:00:47.216Z,90.70
2022-12-15T21:03:20.534Z,90.60
2022-12-15T21:05:48.663Z,90.50
2022-12-15T21:08:18.422Z,90.70
2022-12-15T21:10:46.006Z,90.80
2022-12-15T21:13:19.088Z,90.90
2022-12-15T21:15:46.717Z,90.90
2022-12-15T21:19:11.060Z,90.90
2022-12-15T21:21:01.192Z,90.90
2022-12-15T21:23:32.038Z,91.00
2022-12-15T21:26:01.334Z,90.90
2022-12-15T21:28:28.249Z,90.90
2022-12-15T21:30:55.781Z,90.90
2022-12-15T21:33:22.524Z,91.00
2022-12-15T21:35:49.276Z,91.00
2022-12-15T21:38:30.334Z,91.00
2022-12-15T21:41:03.676Z,91.00
2022-12-15T21:43:33.664Z,91.10
2022-12-15T21:46:02.351Z,91.10
2022-12-15T21:48:48.798Z,90.80
2022-12-15T21:51:17.016Z,90.80
2022-12-15T21:53:45.866Z,90.60
2022-12-15T21:56:16.456Z,90.30
2022-12-15T21:58:43.632Z,90.10
2022-12-15T22:01:18.842Z,89.90
2022-12-15T22:03:53.352Z,89.90
2022-12-15T22:06:25.141Z,89.90
2022-12-15T22:08:53.449Z,89.90
2022-12-15T22:11:31.490Z,89.90
2022-12-15T22:14:02.421Z,89.80
2022-12-15T22:16:29.834Z,89.80
2022-12-15T22:18:58.529Z,89.80
2022-12-15T22:21:25.682Z,89.90
2022-12-15T22:23:52.729Z,89.90
2022-12-15T22:26:29.831Z,90.00
2022-12-15T22:29:00.702Z,89.90
2022-12-15T22:31:27.691Z,89.90
2022-12-15T22:33:55.205Z,89.90
2022-12-15T22:36:22.042Z,90.00
2022-12-15T22:38:48.774Z,90.10
2022-12-15T22:41:21.933Z,90.00
2022-12-15T22:43:52.367Z,90.00
2022-12-15T22:46:22.265Z,89.80
2022-12-15T22:48:51.076Z,89.80
2022-12-15T22:51:19.123Z,89.90
2022-12-15T22:53:46.602Z,89.80
2022-12-15T22:56:27.601Z,89.80
2022-12-15T22:59:03.004Z,89.80
2022-12-15T23:01:29.963Z,89.80
2022-12-15T23:03:56.959Z,89.90
2022-12-15T23:06:25.855Z,90.00
2022-12-15T23:08:55.822Z,90.00
2022-12-15T23:11:39.428Z,90.00
2022-12-15T23:14:11.796Z,90.00
2022-12-15T23:16:39.288Z,90.10
2022-12-15T23:19:10.164Z,90.10
2022-12-15T23:21:37.119Z,90.20
2022-12-15T23:24:03.982Z,90.20
2022-12-15T23:26:30.702Z,90.30
2022-12-15T23:28:57.517Z,90.30
2022-12-15T23:31:24.325Z,90.30
2022-12-15T23:33:52.085Z,90.50
2022-12-15T23:36:19.140Z,90.60
2022-12-15T23:38:46.327Z,90.70
2022-12-15T23:41:17.789Z,91.00
2022-12-15T23:43:45.096Z,91.20
2022-12-15T23:46:12.564Z,91.30
2022-12-15T23:48:42.789Z,91.40
2022-12-15T23:51:15.748Z,91.70
2022-12-15T23:53:44.674Z,92.00
2022-12-15T23:56:20.260Z,92.10
2022-12-15T23:58:53.457Z,92.20
